Time;durP1;ratioP1;P1;durP2;ratioP2;P2;SDS_P1;SDS_P2;PMS_P1;PMS_P2;Temp;Humidity;BMP_temperature;BMP_pressure;BME280_temperature;BME280_humidity;BME280_pressure;Samples;Min_cycle;Max_cycle;Signal;HPM_P1;HPM_P2
2022/01/12 00:02:04;;;;;;;11.37;6.03;;;;;;;;;;5005060;28;20025;-79
2022/01/12 00:04:31;;;;;;;9.10;5.03;;;;;;;;;;5026818;28;20188;-80
2022/01/12 00:06:57;;;;;;;8.70;4.53;;;;;;;;;;5029608;28;20500;-82
2022/01/12 00:09:24;;;;;;;9.57;5.07;;;;;;;;;;5012225;28;20487;-80
2022/01/12 00:11:50;;;;;;;9.30;5.03;;;;;;;;;;5027374;28;20029;-80
2022/01/12 00:14:17;;;;;;;11.00;4.60;;;;;;;;;;5006162;28;20408;-81
2022/01/12 00:16:47;;;;;;;10.80;4.80;;;;;;;;;;5011927;28;20112;-81
2022/01/12 00:19:14;;;;;;;9.40;4.73;;;;;;;;;;5026409;28;20483;-81
2022/01/12 00:21:40;;;;;;;7.17;3.77;;;;;;;;;;5005090;28;20037;-81
2022/01/12 00:24:08;;;;;;;8.33;4.13;;;;;;;;;;5007398;28;20081;-81
2022/01/12 00:26:42;;;;;;;15.53;5.30;;;;;;;;;;5021597;28;20021;-81
2022/01/12 00:34:40;;;;;;;8.73;4.80;;;;;;;;;;5008642;28;20040;-81
2022/01/12 00:37:06;;;;;;;13.83;6.37;;;;;;;;;;5007530;28;20473;-80
2022/01/12 00:39:32;;;;;;;10.10;6.13;;;;;;;;;;5019220;28;20037;-81
2022/01/12 00:41:59;;;;;;;9.73;4.77;;;;;;;;;;5026332;28;20037;-80
2022/01/12 00:44:33;;;;;;;10.17;4.53;;;;;;;;;;5028603;28;20029;-82
2022/01/12 00:47:00;;;;;;;11.80;4.73;;;;;;;;;;5037003;28;20033;-82
2022/01/12 00:49:26;;;;;;;13.37;5.07;;;;;;;;;;5029555;28;20032;-81
2022/01/12 00:51:54;;;;;;;9.00;4.30;;;;;;;;;;5029458;28;20029;-80
2022/01/12 00:54:21;;;;;;;7.23;2.63;;;;;;;;;;5022301;28;20021;-80
2022/01/12 00:56:48;;;;;;;8.73;3.03;;;;;;;;;;5027222;28;20022;-80
2022/01/12 00:59:14;;;;;;;5.87;2.80;;;;;;;;;;5032148;28;20022;-81
2022/01/12 01:01:41;;;;;;;6.25;2.65;;;;;;;;;;5021379;28;20092;-80
2022/01/12 01:04:08;;;;;;;11.18;3.85;;;;;;;;;;5013856;28;20408;-83
2022/01/12 01:06:35;;;;;;;12.45;4.55;;;;;;;;;;5032306;28;20017;-83
2022/01/12 01:09:03;;;;;;;9.38;5.03;;;;;;;;;;5026136;28;20021;-81
2022/01/12 01:11:30;;;;;;;17.70;5.95;;;;;;;;;;5028417;28;20026;-80
2022/01/12 01:13:58;;;;;;;17.48;5.32;;;;;;;;;;5031846;28;20024;-81
2022/01/12 01:27:07;;;;;;;20.33;8.87;;;;;;;;;;5035869;28;20121;-82
2022/01/12 01:29:33;;;;;;;20.70;8.63;;;;;;;;;;5032706;28;20039;-82
2022/01/12 01:31:59;;;;;;;22.47;8.77;;;;;;;;;;5032369;28;20093;-82
2022/01/12 01:34:27;;;;;;;22.83;7.67;;;;;;;;;;5029420;28;20026;-82
2022/01/12 01:36:55;;;;;;;31.80;12.00;;;;;;;;;;5024217;28;20022;-82
2022/01/12 01:39:23;;;;;;;38.87;13.53;;;;;;;;;;5008676;28;20021;-81
2022/01/12 01:41:57;;;;;;;44.93;18.30;;;;;;;;;;5023185;28;20030;-81
2022/01/12 01:54:53;;;;;;;23.97;11.03;;;;;;;;;;5029820;28;20099;-82
2022/01/12 01:57:20;;;;;;;31.70;11.17;;;;;;;;;;5020892;28;20028;-80
2022/01/12 01:59:46;;;;;;;23.90;10.67;;;;;;;;;;5024546;28;20029;-82
2022/01/12 02:02:13;;;;;;;38.83;12.83;;;;;;;;;;5011331;28;20453;-83
2022/01/12 02:04:40;;;;;;;32.10;10.93;;;;;;;;;;5033660;28;20041;-83
2022/01/12 02:07:06;;;;;;;30.50;13.07;;;;;;;;;;5033769;28;20018;-81
2022/01/12 02:09:34;;;;;;;34.03;13.80;;;;;;;;;;5043872;28;20030;-83
2022/01/12 02:12:01;;;;;;;35.20;14.20;;;;;;;;;;5038594;28;20021;-83
2022/01/12 02:14:29;;;;;;;37.67;15.40;;;;;;;;;;5039413;28;20030;-82
2022/01/12 02:17:08;;;;;;;72.93;29.47;;;;;;;;;;5034208;28;20021;-81
2022/01/12 02:20:08;;;;;;;62.47;28.40;;;;;;;;;;5027246;28;20017;-84
2022/01/12 02:36:25;;;;;;;119.53;41.83;;;;;;;;;;5031301;28;20357;-82
2022/01/12 02:41:38;;;;;;;120.80;47.07;;;;;;;;;;5028100;28;20032;-83
2022/01/12 02:54:48;;;;;;;90.97;34.33;;;;;;;;;;5033604;28;20021;-81
2022/01/12 02:57:14;;;;;;;90.77;33.40;;;;;;;;;;5032532;28;20469;-80
2022/01/12 03:00:00;;;;;;;62.03;23.50;;;;;;;;;;5028264;28;20029;-83
2022/01/12 03:02:34;;;;;;;54.10;20.23;;;;;;;;;;5029389;28;20029;-82
2022/01/12 03:07:31;;;;;;;55.00;20.50;;;;;;;;;;5033935;28;20511;-82
2022/01/12 03:09:57;;;;;;;63.03;23.87;;;;;;;;;;5029259;28;20113;-81
2022/01/12 03:12:24;;;;;;;59.80;22.50;;;;;;;;;;5026601;28;20165;-83
2022/01/12 03:14:50;;;;;;;56.43;23.57;;;;;;;;;;5027844;28;20032;-81
2022/01/12 03:17:16;;;;;;;61.17;23.03;;;;;;;;;;5029246;28;20088;-82
2022/01/12 03:19:43;;;;;;;59.20;22.50;;;;;;;;;;5032269;28;20496;-81
2022/01/12 03:22:09;;;;;;;57.53;21.35;;;;;;;;;;5030833;28;20406;-81
2022/01/12 03:24:36;;;;;;;51.43;20.30;;;;;;;;;;5025933;28;20025;-81
2022/01/12 03:27:03;;;;;;;59.22;21.48;;;;;;;;;;5021502;28;20034;-81
2022/01/12 03:29:29;;;;;;;57.23;22.03;;;;;;;;;;5021802;28;20481;-82
2022/01/12 03:31:57;;;;;;;49.42;21.90;;;;;;;;;;5023011;28;20021;-81
2022/01/12 03:34:27;;;;;;;51.90;21.25;;;;;;;;;;5007419;28;21172;-81
2022/01/12 03:37:16;;;;;;;48.67;22.08;;;;;;;;;;5022655;28;20550;-82
2022/01/12 03:39:40;;;;;;;46.83;21.27;;;;;;;;;;5024516;28;20120;-80
2022/01/12 03:42:06;;;;;;;59.60;21.77;;;;;;;;;;5023256;28;20029;-82
2022/01/12 03:44:32;;;;;;;52.63;20.23;;;;;;;;;;5009189;28;20033;-82
2022/01/12 03:46:59;;;;;;;51.80;20.10;;;;;;;;;;5021620;28;20472;-81
2022/01/12 03:49:27;;;;;;;62.67;21.05;;;;;;;;;;5021893;28;20072;-81
2022/01/12 03:51:53;;;;;;;45.35;20.33;;;;;;;;;;5021923;28;20117;-81
2022/01/12 03:54:21;;;;;;;38.28;17.38;;;;;;;;;;5025347;28;20104;-81
2022/01/12 03:56:47;;;;;;;46.63;17.65;;;;;;;;;;5007162;28;20025;-82
2022/01/12 03:59:13;;;;;;;45.33;16.65;;;;;;;;;;5036200;28;20032;-80
2022/01/12 04:01:40;;;;;;;34.63;15.55;;;;;;;;;;5026893;28;20476;-80
2022/01/12 04:04:10;;;;;;;27.08;11.88;;;;;;;;;;5024538;28;20033;-81
2022/01/12 04:09:21;;;;;;;29.58;14.07;;;;;;;;;;5029560;28;20514;-83
2022/01/12 04:11:47;;;;;;;34.15;13.98;;;;;;;;;;5029208;28;20025;-84
2022/01/12 04:14:14;;;;;;;36.00;14.07;;;;;;;;;;5027555;28;20033;-84
2022/01/12 04:16:42;;;;;;;31.92;12.52;;;;;;;;;;5016853;28;20500;-82
2022/01/12 04:19:09;;;;;;;33.70;13.07;;;;;;;;;;5017434;28;20022;-83
2022/01/12 04:21:43;;;;;;;42.45;14.30;;;;;;;;;;5005073;28;20124;-82
2022/01/12 04:24:09;;;;;;;33.38;14.40;;;;;;;;;;5016991;28;20384;-81
2022/01/12 04:26:35;;;;;;;41.50;15.10;;;;;;;;;;5022162;28;20449;-80
2022/01/12 04:29:02;;;;;;;36.80;13.52;;;;;;;;;;5013344;28;20095;-81
2022/01/12 04:31:29;;;;;;;30.15;13.48;;;;;;;;;;5018897;28;20038;-81
2022/01/12 04:33:55;;;;;;;37.63;13.40;;;;;;;;;;5015686;28;20018;-82
2022/01/12 04:36:21;;;;;;;33.38;12.57;;;;;;;;;;5019704;28;20032;-82
2022/01/12 04:38:50;;;;;;;28.88;12.63;;;;;;;;;;5019574;28;20022;-80
2022/01/12 04:41:16;;;;;;;30.88;13.30;;;;;;;;;;5001069;28;20029;-81
2022/01/12 04:43:44;;;;;;;37.90;12.77;;;;;;;;;;5019524;28;20195;-82
2022/01/12 04:46:39;;;;;;;35.38;12.90;;;;;;;;;;5021431;28;20116;-81
2022/01/12 04:49:26;;;;;;;26.90;12.18;;;;;;;;;;5030111;28;20064;-80
2022/01/12 04:51:53;;;;;;;30.85;12.32;;;;;;;;;;5001370;28;20037;-82
2022/01/12 04:54:19;;;;;;;29.13;12.20;;;;;;;;;;5003048;28;20083;-82
2022/01/12 04:56:45;;;;;;;29.63;12.15;;;;;;;;;;5004528;28;20025;-82
2022/01/12 04:59:12;;;;;;;32.15;11.80;;;;;;;;;;5009317;28;20139;-81
2022/01/12 05:01:48;;;;;;;29.15;13.10;;;;;;;;;;5021347;28;20026;-82
2022/01/12 05:14:59;;;;;;;19.20;9.55;;;;;;;;;;5011799;28;20080;-83
2022/01/12 05:17:27;;;;;;;23.85;10.32;;;;;;;;;;5000590;28;20039;-84
2022/01/12 05:19:53;;;;;;;22.13;9.82;;;;;;;;;;5014673;28;20124;-82
2022/01/12 05:22:20;;;;;;;19.73;9.35;;;;;;;;;;5026848;28;20048;-83
2022/01/12 05:24:46;;;;;;;33.75;14.63;;;;;;;;;;5027342;28;20068;-81
2022/01/12 05:27:14;;;;;;;33.85;14.90;;;;;;;;;;5030770;28;20021;-84
2022/01/12 05:29:40;;;;;;;28.98;13.85;;;;;;;;;;5023967;28;20095;-82
2022/01/12 05:32:09;;;;;;;34.58;14.77;;;;;;;;;;5024191;28;20036;-84
2022/01/12 05:34:37;;;;;;;34.90;18.40;;;;;;;;;;5026598;28;20272;-82
2022/01/12 05:37:04;;;;;;;77.88;39.15;;;;;;;;;;5026744;28;20032;-82
2022/01/12 05:39:30;;;;;;;127.10;60.22;;;;;;;;;;5010157;28;20037;-82
2022/01/12 05:41:59;;;;;;;119.85;61.72;;;;;;;;;;5021069;28;20068;-82
2022/01/12 05:44:26;;;;;;;124.45;65.70;;;;;;;;;;5024543;28;20104;-81
2022/01/12 05:46:54;;;;;;;110.03;57.35;;;;;;;;;;5031713;28;20420;-83
2022/01/12 05:49:36;;;;;;;102.30;50.28;;;;;;;;;;5031855;28;20048;-80
2022/01/12 05:52:04;;;;;;;103.35;54.38;;;;;;;;;;5030496;28;20017;-82
2022/01/12 05:54:30;;;;;;;117.45;59.97;;;;;;;;;;5028941;28;20083;-83
2022/01/12 05:56:57;;;;;;;111.25;62.78;;;;;;;;;;5013390;28;20177;-83
2022/01/12 05:59:23;;;;;;;111.82;64.03;;;;;;;;;;5026002;28;20029;-85
2022/01/12 06:01:49;;;;;;;110.93;61.70;;;;;;;;;;5023964;28;20033;-83
2022/01/12 06:04:16;;;;;;;84.53;48.03;;;;;;;;;;5007900;28;20029;-84
2022/01/12 06:06:42;;;;;;;87.30;46.88;;;;;;;;;;5024145;28;20691;-83
2022/01/12 06:09:08;;;;;;;66.45;36.70;;;;;;;;;;5027712;28;20026;-82
2022/01/12 06:11:35;;;;;;;67.70;36.85;;;;;;;;;;5007324;28;20116;-83
2022/01/12 06:14:02;;;;;;;65.68;31.88;;;;;;;;;;5025831;28;20045;-81
2022/01/12 06:16:29;;;;;;;61.05;30.95;;;;;;;;;;5025443;28;20014;-84
2022/01/12 06:18:56;;;;;;;75.55;37.08;;;;;;;;;;5016870;28;20029;-85
2022/01/12 06:21:23;;;;;;;78.82;40.90;;;;;;;;;;5029385;28;20447;-82
2022/01/12 06:23:50;;;;;;;86.85;46.72;;;;;;;;;;5005659;28;20032;-83
2022/01/12 06:26:23;;;;;;;91.90;50.22;;;;;;;;;;5028864;28;20029;-82
2022/01/12 06:29:21;;;;;;;85.75;50.75;;;;;;;;;;5010575;28;20033;-82
2022/01/12 06:31:43;;;;;;;85.45;47.67;;;;;;;;;;5021691;28;20065;-83
2022/01/12 06:34:09;;;;;;;81.97;42.17;;;;;;;;;;5026348;28;20025;-85
2022/01/12 06:36:37;;;;;;;64.45;37.47;;;;;;;;;;5009407;28;20747;-83
2022/01/12 06:39:06;;;;;;;68.03;35.15;;;;;;;;;;5027121;28;20033;-82
2022/01/12 06:41:35;;;;;;;66.03;34.00;;;;;;;;;;5027472;28;20026;-81
2022/01/12 06:44:04;;;;;;;56.45;32.00;;;;;;;;;;5026065;28;20525;-82
2022/01/12 06:46:32;;;;;;;60.67;25.25;;;;;;;;;;5025116;28;20025;-85
2022/01/12 06:48:58;;;;;;;46.53;25.88;;;;;;;;;;5025839;28;20090;-83
2022/01/12 06:51:25;;;;;;;47.35;24.48;;;;;;;;;;5007641;28;20072;-83
2022/01/12 06:53:53;;;;;;;46.10;23.40;;;;;;;;;;5026052;28;20041;-84
2022/01/12 06:56:19;;;;;;;45.33;23.95;;;;;;;;;;5022099;28;20061;-84
2022/01/12 06:58:46;;;;;;;42.20;21.42;;;;;;;;;;5024756;28;20021;-85
2022/01/12 07:01:12;;;;;;;46.17;21.98;;;;;;;;;;5022221;28;20052;-83
2022/01/12 07:03:39;;;;;;;41.25;21.73;;;;;;;;;;5025458;28;20472;-83
2022/01/12 07:06:05;;;;;;;41.85;20.88;;;;;;;;;;5008293;28;20091;-88
2022/01/12 07:08:32;;;;;;;39.95;18.88;;;;;;;;;;5008020;28;20053;-85
2022/01/12 07:11:05;;;;;;;33.28;17.98;;;;;;;;;;5023137;28;20106;-83
2022/01/12 07:13:31;;;;;;;27.77;16.30;;;;;;;;;;4999490;28;20056;-86
2022/01/12 07:15:58;;;;;;;30.80;16.88;;;;;;;;;;5031166;28;20030;-87
2022/01/12 07:18:29;;;;;;;32.97;17.45;;;;;;;;;;5007012;28;20048;-86
2022/01/12 07:20:57;;;;;;;38.15;19.25;;;;;;;;;;5007378;28;20104;-83
2022/01/12 07:23:23;;;;;;;48.65;23.42;;;;;;;;;;4987795;28;20549;-86
2022/01/12 07:25:50;;;;;;;41.05;20.60;;;;;;;;;;4983175;28;20033;-83
2022/01/12 07:28:17;;;;;;;31.00;14.45;;;;;;;;;;4990472;28;20376;-86
2022/01/12 07:30:44;;;;;;;19.25;10.55;;;;;;;;;;5007168;28;20481;-85
2022/01/12 07:33:10;;;;;;;24.88;12.38;;;;;;;;;;4990491;28;20472;-84
2022/01/12 07:35:37;;;;;;;23.02;11.35;;;;;;;;;;4988357;28;20030;-85
2022/01/12 07:38:03;;;;;;;17.85;9.50;;;;;;;;;;5008649;28;20117;-86
2022/01/12 07:40:30;;;;;;;21.58;9.52;;;;;;;;;;5004512;28;20029;-85
2022/01/12 07:43:00;;;;;;;22.13;8.32;;;;;;;;;;4987737;28;20022;-85
2022/01/12 07:45:26;;;;;;;16.25;9.23;;;;;;;;;;4991960;28;20030;-83
2022/01/12 07:47:55;;;;;;;25.38;11.88;;;;;;;;;;5015865;28;20026;-83
2022/01/12 07:50:22;;;;;;;26.60;9.90;;;;;;;;;;5006396;28;20109;-84
2022/01/12 07:52:53;;;;;;;23.17;11.65;;;;;;;;;;5004026;28;20018;-84
2022/01/12 07:55:22;;;;;;;18.35;9.52;;;;;;;;;;4988153;28;20026;-85
2022/01/12 07:57:49;;;;;;;24.25;10.15;;;;;;;;;;5009350;28;20021;-83
2022/01/12 08:00:16;;;;;;;24.58;10.77;;;;;;;;;;4988824;28;20030;-85
2022/01/12 08:02:42;;;;;;;22.73;10.70;;;;;;;;;;5006767;28;20130;-86
2022/01/12 08:05:09;;;;;;;25.52;11.38;;;;;;;;;;5005548;28;20022;-86
2022/01/12 08:07:39;;;;;;;26.98;11.85;;;;;;;;;;5002912;28;20038;-85
2022/01/12 08:10:07;;;;;;;29.65;10.43;;;;;;;;;;4989234;28;20156;-85
2022/01/12 08:12:33;;;;;;;34.78;9.88;;;;;;;;;;4997166;28;20037;-85
2022/01/12 08:15:00;;;;;;;21.90;9.85;;;;;;;;;;4977384;28;20026;-85
2022/01/12 08:17:26;;;;;;;25.73;9.88;;;;;;;;;;4986102;28;20026;-85
2022/01/12 08:19:55;;;;;;;26.85;12.80;;;;;;;;;;4999264;28;20671;-86
2022/01/12 08:22:21;;;;;;;25.02;13.13;;;;;;;;;;5001752;28;20128;-86
2022/01/12 08:24:48;;;;;;;31.08;11.65;;;;;;;;;;5006474;28;20037;-88
2022/01/12 08:27:16;;;;;;;36.55;11.73;;;;;;;;;;5025390;28;20080;-83
2022/01/12 08:29:42;;;;;;;25.00;11.82;;;;;;;;;;5024601;28;20532;-84
2022/01/12 08:32:08;;;;;;;27.50;14.13;;;;;;;;;;5005202;28;20044;-84
2022/01/12 08:34:35;;;;;;;28.98;13.98;;;;;;;;;;5005852;28;20036;-83
2022/01/12 08:37:01;;;;;;;26.15;12.90;;;;;;;;;;5028295;28;20036;-84
2022/01/12 08:39:28;;;;;;;22.13;10.43;;;;;;;;;;5022378;28;20049;-83
2022/01/12 08:41:54;;;;;;;20.45;10.70;;;;;;;;;;5024987;28;20033;-84
2022/01/12 08:44:20;;;;;;;21.83;11.00;;;;;;;;;;5029804;28;20112;-85
2022/01/12 08:46:47;;;;;;;19.27;11.27;;;;;;;;;;5024296;28;20021;-84
2022/01/12 08:49:13;;;;;;;27.98;13.35;;;;;;;;;;5027065;28;20087;-84
2022/01/12 08:51:39;;;;;;;30.77;14.43;;;;;;;;;;5030248;28;20034;-84
2022/01/12 08:54:06;;;;;;;35.40;16.45;;;;;;;;;;5027939;28;20034;-83
2022/01/12 08:56:32;;;;;;;30.50;15.80;;;;;;;;;;5024656;28;20513;-84
2022/01/12 08:58:59;;;;;;;35.03;16.85;;;;;;;;;;5032652;28;20017;-85
2022/01/12 09:01:25;;;;;;;28.85;15.10;;;;;;;;;;5030234;28;20036;-87
2022/01/12 09:03:51;;;;;;;36.47;17.30;;;;;;;;;;5007319;28;20115;-87
2022/01/12 09:06:18;;;;;;;34.78;18.75;;;;;;;;;;5031528;28;20037;-85
2022/01/12 09:08:45;;;;;;;35.15;19.08;;;;;;;;;;5023055;28;20026;-84
2022/01/12 09:11:12;;;;;;;34.05;18.15;;;;;;;;;;5035383;28;20124;-86
2022/01/12 09:13:41;;;;;;;34.05;18.50;;;;;;;;;;5009660;28;20025;-87
2022/01/12 09:16:29;;;;;;;39.05;18.83;;;;;;;;;;5016657;28;20067;-85
2022/01/12 09:18:57;;;;;;;33.00;17.25;;;;;;;;;;5032920;28;20444;-87
2022/01/12 09:21:24;;;;;;;31.83;16.80;;;;;;;;;;5015401;28;20543;-85
2022/01/12 09:23:50;;;;;;;29.38;16.17;;;;;;;;;;5032955;28;20025;-85
2022/01/12 09:26:20;;;;;;;30.63;16.20;;;;;;;;;;5017228;28;20484;-89
2022/01/12 09:28:56;;;;;;;34.20;18.33;;;;;;;;;;5034280;28;20029;-89
2022/01/12 09:31:25;;;;;;;38.25;19.83;;;;;;;;;;5012160;28;20033;-86
2022/01/12 09:33:52;;;;;;;46.55;20.85;;;;;;;;;;5030263;28;20040;-85
2022/01/12 09:36:18;;;;;;;39.33;17.38;;;;;;;;;;5011200;28;20052;-84
2022/01/12 09:38:45;;;;;;;37.80;18.50;;;;;;;;;;5009790;28;20025;-85
2022/01/12 09:41:11;;;;;;;38.33;18.60;;;;;;;;;;5027313;28;20026;-81
2022/01/12 09:43:39;;;;;;;38.67;18.13;;;;;;;;;;5024854;28;20037;-83
2022/01/12 09:46:05;;;;;;;38.60;20.10;;;;;;;;;;5028509;28;20053;-84
2022/01/12 09:48:41;;;;;;;36.17;19.17;;;;;;;;;;5006015;28;20033;-84
2022/01/12 09:51:07;;;;;;;35.28;20.58;;;;;;;;;;5008598;28;20124;-84
2022/01/12 09:53:34;;;;;;;40.33;19.85;;;;;;;;;;5007004;28;20053;-84
2022/01/12 09:56:01;;;;;;;39.35;19.08;;;;;;;;;;5006505;28;20473;-84
2022/01/12 09:58:34;;;;;;;44.53;22.92;;;;;;;;;;5020218;28;20033;-84
2022/01/12 10:01:01;;;;;;;52.17;23.10;;;;;;;;;;5029384;28;20045;-83
2022/01/12 10:03:28;;;;;;;40.05;20.98;;;;;;;;;;5009965;28;20022;-84
2022/01/12 10:05:55;;;;;;;46.47;21.15;;;;;;;;;;5030839;28;20124;-84
2022/01/12 10:08:21;;;;;;;43.60;20.52;;;;;;;;;;5026189;28;20038;-84
2022/01/12 10:11:07;;;;;;;44.00;17.23;;;;;;;;;;5007646;28;20025;-83
2022/01/12 10:13:36;;;;;;;37.17;15.55;;;;;;;;;;5009855;28;20351;-84
2022/01/12 10:16:15;;;;;;;33.35;12.88;;;;;;;;;;5023411;28;20029;-83
2022/01/12 10:19:05;;;;;;;43.35;19.58;;;;;;;;;;5012245;28;20048;-84
2022/01/12 10:21:32;;;;;;;32.90;16.42;;;;;;;;;;5005921;28;20397;-86
2022/01/12 10:24:10;;;;;;;32.90;14.57;;;;;;;;;;5022830;28;20029;-84
2022/01/12 10:26:38;;;;;;;25.33;13.48;;;;;;;;;;5006706;28;20029;-80
2022/01/12 10:29:09;;;;;;;24.13;12.88;;;;;;;;;;5026286;28;20044;-81
2022/01/12 10:31:44;;;;;;;26.60;13.00;;;;;;;;;;5005302;28;20377;-83
2022/01/12 10:34:11;;;;;;;31.27;13.98;;;;;;;;;;5024823;28;20101;-84
2022/01/12 10:36:39;;;;;;;27.38;12.95;;;;;;;;;;5028425;28;20072;-83
2022/01/12 10:39:09;;;;;;;30.45;14.00;;;;;;;;;;5005851;28;20096;-84
2022/01/12 10:41:35;;;;;;;34.58;17.75;;;;;;;;;;5021588;28;20037;-86
2022/01/12 10:44:02;;;;;;;39.53;18.73;;;;;;;;;;5011232;28;20146;-85
2022/01/12 10:46:30;;;;;;;41.30;20.25;;;;;;;;;;5010382;28;20129;-84
2022/01/12 10:48:58;;;;;;;37.85;18.42;;;;;;;;;;5008844;28;20370;-86
2022/01/12 10:51:26;;;;;;;40.35;19.75;;;;;;;;;;5026613;28;20431;-83
2022/01/12 10:53:53;;;;;;;35.83;19.25;;;;;;;;;;5008770;28;20066;-86
2022/01/12 10:56:21;;;;;;;45.45;22.85;;;;;;;;;;5029541;28;20088;-84
2022/01/12 10:58:50;;;;;;;67.82;31.33;;;;;;;;;;5006091;28;20033;-83
2022/01/12 11:01:17;;;;;;;63.53;29.70;;;;;;;;;;5025212;28;20045;-84
2022/01/12 11:03:44;;;;;;;56.80;26.17;;;;;;;;;;5026361;28;20040;-85
2022/01/12 11:06:11;;;;;;;58.55;27.65;;;;;;;;;;5022425;28;20075;-86
2022/01/12 11:08:38;;;;;;;73.53;31.20;;;;;;;;;;5022808;28;20041;-83
2022/01/12 11:11:05;;;;;;;70.45;29.42;;;;;;;;;;5028484;28;20155;-83
2022/01/12 11:13:34;;;;;;;66.68;31.58;;;;;;;;;;5020865;28;20072;-84
2022/01/12 11:16:01;;;;;;;84.13;36.53;;;;;;;;;;5013895;28;20028;-85
2022/01/12 11:18:32;;;;;;;83.90;36.05;;;;;;;;;;5004783;28;20018;-83
2022/01/12 11:21:06;;;;;;;70.00;34.95;;;;;;;;;;5005608;28;20086;-84
2022/01/12 11:23:34;;;;;;;61.83;29.95;;;;;;;;;;5005310;28;20049;-84
2022/01/12 11:26:11;;;;;;;60.00;27.75;;;;;;;;;;5024374;28;20621;-85
2022/01/12 11:28:38;;;;;;;52.45;25.70;;;;;;;;;;5006688;28;20068;-84
2022/01/12 11:31:05;;;;;;;61.80;27.80;;;;;;;;;;5022165;28;20072;-84
2022/01/12 11:33:31;;;;;;;70.55;33.50;;;;;;;;;;5024416;28;20406;-83
2022/01/12 11:36:02;;;;;;;82.43;41.17;;;;;;;;;;5026938;28;20487;-83
2022/01/12 11:38:36;;;;;;;82.32;42.22;;;;;;;;;;5004776;28;20044;-84
2022/01/12 11:41:10;;;;;;;91.65;43.88;;;;;;;;;;4999412;28;20536;-84
2022/01/12 11:43:50;;;;;;;79.72;38.85;;;;;;;;;;5029327;28;20043;-84
2022/01/12 11:46:24;;;;;;;85.80;40.55;;;;;;;;;;5032914;28;20030;-85
2022/01/12 11:48:58;;;;;;;74.15;34.55;;;;;;;;;;5027195;28;20029;-85
2022/01/12 11:51:37;;;;;;;75.53;35.67;;;;;;;;;;5014545;28;20084;-84
2022/01/12 11:54:14;;;;;;;56.38;30.25;;;;;;;;;;5034200;28;20392;-84
2022/01/12 11:56:56;;;;;;;60.85;29.92;;;;;;;;;;5029196;28;20592;-83
2022/01/12 11:59:23;;;;;;;62.90;29.33;;;;;;;;;;5000408;28;20030;-84
2022/01/12 12:01:52;;;;;;;53.72;28.92;;;;;;;;;;5006815;28;20044;-84
2022/01/12 12:04:29;;;;;;;59.08;28.73;;;;;;;;;;5023946;28;20087;-84
2022/01/12 12:07:02;;;;;;;61.55;30.63;;;;;;;;;;5023599;28;20044;-83
2022/01/12 12:09:35;;;;;;;78.75;34.50;;;;;;;;;;5011498;28;20060;-84
2022/01/12 12:12:02;;;;;;;68.65;32.92;;;;;;;;;;5024911;28;20113;-86
2022/01/12 12:14:28;;;;;;;57.03;30.80;;;;;;;;;;5011048;28;20511;-84
2022/01/12 12:16:56;;;;;;;74.22;32.55;;;;;;;;;;5030115;28;20108;-85
2022/01/12 12:19:26;;;;;;;87.15;36.30;;;;;;;;;;5025529;28;20029;-86
2022/01/12 12:21:52;;;;;;;67.43;33.70;;;;;;;;;;5027600;28;20067;-84
2022/01/12 12:24:19;;;;;;;75.53;34.00;;;;;;;;;;5013066;28;20087;-82
2022/01/12 12:26:52;;;;;;;67.30;33.97;;;;;;;;;;5034873;28;20116;-83
2022/01/12 12:29:25;;;;;;;73.65;37.10;;;;;;;;;;5008860;28;20109;-83
2022/01/12 12:31:52;;;;;;;85.03;38.97;;;;;;;;;;5013444;28;20055;-83
2022/01/12 12:34:21;;;;;;;80.38;37.13;;;;;;;;;;5032167;28;20528;-84
2022/01/12 12:36:55;;;;;;;90.20;38.72;;;;;;;;;;5022452;28;20029;-83
2022/01/12 12:39:22;;;;;;;75.28;34.78;;;;;;;;;;5028293;28;20036;-84
2022/01/12 12:41:48;;;;;;;80.72;36.03;;;;;;;;;;5024527;28;20030;-83
2022/01/12 12:44:25;;;;;;;71.45;34.63;;;;;;;;;;5010745;28;20029;-83
2022/01/12 12:46:52;;;;;;;72.90;31.00;;;;;;;;;;5015463;28;20398;-84
2022/01/12 12:49:19;;;;;;;64.05;29.38;;;;;;;;;;5023919;28;20571;-83
2022/01/12 12:51:45;;;;;;;61.05;26.67;;;;;;;;;;5031381;28;20081;-83
2022/01/12 12:54:15;;;;;;;67.53;25.58;;;;;;;;;;5009994;28;20060;-84
2022/01/12 12:56:48;;;;;;;73.32;25.92;;;;;;;;;;5005914;28;20030;-84
2022/01/12 12:59:15;;;;;;;55.33;23.17;;;;;;;;;;5010938;28;20064;-85
2022/01/12 13:01:44;;;;;;;53.13;20.52;;;;;;;;;;5013328;28;20477;-86
2022/01/12 13:04:11;;;;;;;48.00;22.02;;;;;;;;;;5028640;28;20025;-85
2022/01/12 13:06:38;;;;;;;48.22;21.45;;;;;;;;;;5030030;28;20025;-86
2022/01/12 13:09:09;;;;;;;39.38;21.52;;;;;;;;;;5031128;28;20118;-84
2022/01/12 13:11:37;;;;;;;49.58;21.92;;;;;;;;;;5013646;28;20044;-84
2022/01/12 13:14:09;;;;;;;37.70;19.38;;;;;;;;;;5032521;28;20364;-82
2022/01/12 13:16:43;;;;;;;41.83;20.48;;;;;;;;;;5036297;28;20025;-83
2022/01/12 13:19:22;;;;;;;45.63;17.60;;;;;;;;;;4998255;28;20033;-84
2022/01/12 13:21:48;;;;;;;35.30;16.52;;;;;;;;;;5007437;28;20056;-82
2022/01/12 13:24:15;;;;;;;34.75;15.93;;;;;;;;;;5014454;28;20060;-84
2022/01/12 13:26:41;;;;;;;41.42;17.98;;;;;;;;;;5030587;28;20039;-83
2022/01/12 13:29:09;;;;;;;35.38;14.75;;;;;;;;;;5031793;28;20095;-85
2022/01/12 13:31:36;;;;;;;35.47;15.00;;;;;;;;;;5006623;28;20033;-86
2022/01/12 13:34:13;;;;;;;29.52;14.23;;;;;;;;;;5003394;28;20021;-85
2022/01/12 13:36:48;;;;;;;26.52;13.48;;;;;;;;;;5021061;28;20096;-85
2022/01/12 13:39:16;;;;;;;30.35;13.27;;;;;;;;;;5015030;28;20030;-84
2022/01/12 13:41:46;;;;;;;29.20;13.30;;;;;;;;;;5032606;28;20116;-85
2022/01/12 13:44:21;;;;;;;31.23;16.20;;;;;;;;;;5017344;28;20040;-85
2022/01/12 13:47:04;;;;;;;30.77;14.25;;;;;;;;;;5012566;28;20046;-83
2022/01/12 13:49:30;;;;;;;27.77;15.63;;;;;;;;;;5029233;28;20095;-84
2022/01/12 13:52:06;;;;;;;37.70;15.52;;;;;;;;;;5027889;28;20104;-85
2022/01/12 13:54:37;;;;;;;39.42;14.82;;;;;;;;;;5024467;28;20153;-84
2022/01/12 13:57:05;;;;;;;32.47;13.80;;;;;;;;;;5028158;28;20022;-83
2022/01/12 13:59:35;;;;;;;33.70;14.63;;;;;;;;;;5010390;28;20031;-83
2022/01/12 14:02:03;;;;;;;36.42;16.08;;;;;;;;;;5027364;28;20496;-82
2022/01/12 14:04:43;;;;;;;32.95;17.17;;;;;;;;;;5021417;28;20033;-82
2022/01/12 14:07:12;;;;;;;34.67;17.75;;;;;;;;;;5025863;28;20361;-83
2022/01/12 14:09:42;;;;;;;31.80;15.35;;;;;;;;;;5027682;28;20511;-84
2022/01/12 14:12:09;;;;;;;35.78;15.02;;;;;;;;;;5025400;28;20034;-84
2022/01/12 14:14:46;;;;;;;39.65;18.23;;;;;;;;;;5029764;28;20077;-84
2022/01/12 14:17:42;;;;;;;36.55;17.23;;;;;;;;;;5027532;28;20109;-85
2022/01/12 14:20:12;;;;;;;35.85;18.33;;;;;;;;;;5014633;28;20033;-82
2022/01/12 14:22:46;;;;;;;38.53;17.38;;;;;;;;;;5000976;28;20133;-83
2022/01/12 14:25:13;;;;;;;31.48;14.38;;;;;;;;;;5014695;28;20054;-86
2022/01/12 14:27:40;;;;;;;32.88;15.75;;;;;;;;;;5017978;28;20112;-85
2022/01/12 14:30:08;;;;;;;35.92;14.88;;;;;;;;;;5015579;28;20386;-83
2022/01/12 14:32:36;;;;;;;32.78;15.85;;;;;;;;;;5007289;28;20026;-84
2022/01/12 14:35:06;;;;;;;38.58;15.25;;;;;;;;;;4991636;28;20173;-84
2022/01/12 14:37:33;;;;;;;31.35;14.50;;;;;;;;;;5006639;28;20038;-84
2022/01/12 14:40:15;;;;;;;27.85;13.88;;;;;;;;;;5009506;28;20421;-83
2022/01/12 14:42:45;;;;;;;34.08;14.85;;;;;;;;;;5012147;28;20109;-84
2022/01/12 14:45:13;;;;;;;25.58;12.77;;;;;;;;;;4996326;28;20022;-82
2022/01/12 14:47:41;;;;;;;27.05;13.85;;;;;;;;;;5009195;28;20021;-84
2022/01/12 14:50:08;;;;;;;26.60;11.85;;;;;;;;;;5007793;28;20022;-84
2022/01/12 14:52:35;;;;;;;27.75;12.60;;;;;;;;;;4999617;28;20250;-82
2022/01/12 14:55:04;;;;;;;27.30;13.45;;;;;;;;;;5003446;28;20026;-83
2022/01/12 14:57:31;;;;;;;29.90;12.77;;;;;;;;;;4990615;28;20110;-83
2022/01/12 14:59:58;;;;;;;29.13;13.27;;;;;;;;;;5006216;28;20021;-84
2022/01/12 15:02:25;;;;;;;30.33;14.07;;;;;;;;;;5011339;28;20477;-83
2022/01/12 15:04:52;;;;;;;23.90;12.70;;;;;;;;;;5005160;28;20026;-84
2022/01/12 15:07:18;;;;;;;26.38;14.20;;;;;;;;;;5008918;28;20032;-81
2022/01/12 15:09:46;;;;;;;32.42;16.27;;;;;;;;;;5011059;28;20374;-85
2022/01/12 15:12:19;;;;;;;53.55;18.63;;;;;;;;;;4992863;28;20033;-83
2022/01/12 15:14:56;;;;;;;42.97;18.17;;;;;;;;;;5011670;28;20354;-83
2022/01/12 15:17:31;;;;;;;47.42;21.65;;;;;;;;;;4996041;28;20030;-83
2022/01/12 15:19:58;;;;;;;48.60;21.65;;;;;;;;;;5010833;28;20428;-83
2022/01/12 15:22:24;;;;;;;49.15;20.42;;;;;;;;;;5016672;28;20041;-82
2022/01/12 15:24:51;;;;;;;47.55;22.42;;;;;;;;;;5031110;28;20017;-82
2022/01/12 15:27:18;;;;;;;52.15;23.73;;;;;;;;;;5028351;28;20100;-82
2022/01/12 15:29:44;;;;;;;47.28;22.92;;;;;;;;;;5025891;28;20054;-82
2022/01/12 15:32:14;;;;;;;46.92;22.35;;;;;;;;;;5025982;28;20033;-83
2022/01/12 15:34:40;;;;;;;50.40;22.98;;;;;;;;;;5009555;28;20519;-82
2022/01/12 15:37:07;;;;;;;56.50;24.20;;;;;;;;;;5027996;28;20029;-84
2022/01/12 15:39:33;;;;;;;52.30;23.23;;;;;;;;;;5028901;28;20040;-83